Hughes, Argentina
Current Conditions -  °F | °C
As of 11:00 AM on Tuesday 27 Jan 2015 (Local Time) from SAAR Reporting Station
Clear Clear  
Wind Chill: 88°   Ceiling: Unl
Heat Index: 98°   Visibility: 6mi
Dew Point: 75°   Wind: 14mph
Humidity: 66%   Direction: 320°NW
Pressure: 29.74"   Gusts: NA
Location:  33.8°S, 61.33°W
Report Text: SAAR 271400Z 32012KT CAVOK 31/24 Q1007
Loading
Personal Weather Stations






























Interactive Weather Map New forecast layout! Learn more

10-Day Weather Forecast

Advertisements
Track Severe Weather on mobile